EST,Max TemperatureF,Mean TemperatureF,Min TemperatureF,Max Dew PointF,MeanDew PointF,Min DewpointF,Max Humidity, Mean Humidity, Min Humidity, Max Sea Level PressureIn, Mean Sea Level PressureIn, Min Sea Level PressureIn, Max VisibilityMiles, Mean VisibilityMiles, Min VisibilityMiles, Max Wind SpeedMPH, Mean Wind SpeedMPH, Max Gust SpeedMPH,PrecipitationIn, CloudCover, Events, WindDirDegrees
2012-11-1,41,38,34,32,31,24,89,70,51,29.87,29.79,29.72,10,10,9,13,6,20,0.01,8,Rain,239
2012-11-2,43,40,36,27,26,24,64,58,51,30.04,29.92,29.82,10,10,9,17,9,26,0.01,8,Rain,291
2012-11-3,37,34,31,30,27,25,85,77,69,30.17,30.13,30.05,10,10,10,14,6,20,0.00,8,,305
2012-11-4,43,37,30,30,28,25,89,71,53,30.14,30.11,30.05,10,10,9,10,3,16,0.00,6,,342
2012-11-5,42,32,22,27,24,20,88,70,51,30.20,30.16,30.10,10,10,5,9,2,12,0.00,5,,331
2012-11-6,51,35,19,28,23,16,96,64,32,30.17,30.07,29.94,10,8,5,6,0,10,0.00,0,,151
2012-11-7,41,33,25,29,27,24,92,76,60,30.06,29.98,29.88,10,8,4,7,1,10,0.00,2,,7
2012-11-8,43,31,19,25,21,17,92,66,39,30.25,30.17,30.02,10,8,5,14,2,17,0.00,0,Rain,285
2012-11-9,55,38,21,32,25,19,96,67,38,30.36,30.29,30.19,10,8,6,6,1,8,0.00,0,,228
2012-11-10,68,47,25,37,30,23,92,61,29,30.41,30.35,30.26,10,9,6,12,1,15,0.00,0,,227
2012-11-11,74,51,27,46,31,25,100,60,19,30.51,30.38,29.93,10,9,6,23,5,32,0.00,0,,171
2012-11-12,68,54,39,50,43,36,86,66,45,30.35,30.24,30.09,10,8,4,24,14,37,0.12,5,Rain,217
2012-11-13,41,32,22,36,25,20,88,68,48,30.55,30.44,30.33,10,9,4,20,5,26,0.05,4,Rain-Snow,292
2012-11-14,47,33,18,26,21,16,92,67,42,30.57,30.49,30.40,10,6,0,8,1,10,0.00,0,Fog,342
2012-11-15,51,36,20,29,24,18,92,64,36,30.41,30.36,30.30,10,8,4,9,1,13,0.00,0,,329
2012-11-16,52,36,20,30,23,18,92,64,35,30.53,30.43,30.35,10,8,4,10,1,13,0.00,0,,340
2012-11-17,58,38,18,27,20,15,92,56,20,30.63,30.56,30.50,10,8,5,10,2,15,0.00,0,,57
2012-11-18,59,39,19,30,23,17,92,58,24,30.61,30.53,30.46,10,10,9,10,1,14,0.00,0,,116
2012-11-19,59,40,20,30,24,17,92,59,25,30.49,30.38,30.26,10,9,5,7,0,8,0.00,0,,355
2012-11-20,56,41,26,33,28,25,92,64,35,30.25,30.20,30.12,10,9,7,7,1,9,0.00,2,,317
2012-11-21,59,41,22,32,24,15,92,56,20,30.31,30.25,30.19,10,8,5,12,1,16,0.00,0,,325
2012-11-22,63,42,20,29,23,18,92,56,20,30.37,30.27,30.17,10,9,6,3,0,6,0.00,0,,-1
2012-11-23,62,42,22,43,30,20,96,71,46,30.15,30.01,29.87,10,9,3,22,8,33,0.07,5,Rain,267
2012-11-24,31,29,26,21,19,16,81,70,58,30.17,30.08,30.01,10,6,1,15,7,24,0.01,8,Snow,280
2012-11-25,45,35,25,18,15,9,74,48,22,30.14,30.06,29.95,10,10,8,20,8,35,T,3,Snow,237
2012-11-26,52,38,23,34,23,17,82,55,28,30.24,30.17,30.07,10,10,8,12,2,17,T,3,Rain,268
2012-11-27,39,36,33,36,32,28,92,87,82,30.32,30.22,30.14,10,8,3,9,2,13,0.22,8,Rain,325
2012-11-28,38,30,21,29,23,19,89,72,54,30.45,30.35,30.23,10,10,6,14,4,20,0.00,5,,276
2012-11-29,47,32,17,24,18,14,92,60,28,30.51,30.43,30.36,10,8,4,8,0,12,0.00,0,,160
2012-11-30,53,36,18,31,24,16,92,64,35,30.44,30.37,30.29,10,9,7,8,1,9,0.00,2,,145